createdAt,value
2023-01-17T00:01:43.535Z,98932.56
2023-01-17T00:04:32.198Z,98929.75
2023-01-17T00:07:17.050Z,98924.88
2023-01-17T00:09:58.464Z,98906.94
2023-01-17T00:12:27.314Z,98917.03
2023-01-17T00:14:55.764Z,98902.03
2023-01-17T00:17:23.917Z,98905.09
2023-01-17T00:20:09.420Z,98901.44
2023-01-17T00:22:55.300Z,98924.22
2023-01-17T00:25:59.129Z,98919.94
2023-01-17T00:28:27.078Z,98914.63
2023-01-17T00:30:54.035Z,98921.38
2023-01-17T00:33:21.988Z,98916.31
2023-01-17T00:35:48.907Z,98905.72
2023-01-17T00:38:21.065Z,98905.09
2023-01-17T00:40:48.681Z,98905.94
2023-01-17T00:43:36.824Z,98913.06
2023-01-17T00:46:22.991Z,98916.28
2023-01-17T00:49:08.647Z,98919.56
2023-01-17T00:51:54.585Z,98925.88
2023-01-17T00:54:39.898Z,98925.03
2023-01-17T00:57:25.390Z,98916.31
2023-01-17T01:00:10.471Z,98911.81
2023-01-17T01:02:56.622Z,98917.75
2023-01-17T01:05:42.104Z,98909.38
2023-01-17T01:08:45.875Z,98901.59
2023-01-17T01:11:37.927Z,98891.88
2023-01-17T01:14:24.833Z,98895.00
2023-01-17T01:17:10.485Z,98904.44
2023-01-17T01:19:56.047Z,98902.56
2023-01-17T01:22:41.384Z,98897.88
2023-01-17T01:25:27.201Z,98891.94
2023-01-17T01:28:20.638Z,98889.69
2023-01-17T01:31:05.826Z,98885.59
2023-01-17T01:33:32.478Z,98891.44
2023-01-17T01:35:59.161Z,98881.06
2023-01-17T01:38:26.036Z,98884.50
2023-01-17T01:40:56.770Z,98886.81
2023-01-17T01:43:47.948Z,98868.44
2023-01-17T01:46:32.920Z,98864.41
2023-01-17T01:49:03.803Z,98854.06
2023-01-17T01:51:43.387Z,98849.78
2023-01-17T01:54:20.852Z,98839.88
2023-01-17T01:56:50.261Z,98832.38
2023-01-17T01:59:21.289Z,98833.44
2023-01-17T02:01:51.534Z,98842.63
2023-01-17T02:04:19.760Z,98840.53
2023-01-17T02:06:51.167Z,98834.84
2023-01-17T02:09:18.556Z,98821.34
2023-01-17T02:11:47.387Z,98822.84
2023-01-17T02:14:18.712Z,98820.78
2023-01-17T02:16:50.562Z,98809.81
2023-01-17T02:19:38.243Z,98822.34
2023-01-17T02:22:26.108Z,98820.50
2023-01-17T02:25:23.925Z,98830.53
2023-01-17T02:28:23.694Z,98836.47
2023-01-17T02:31:45.879Z,98812.09
2023-01-17T02:34:41.328Z,98832.28
2023-01-17T02:37:15.372Z,98831.91
2023-01-17T02:40:06.494Z,98828.06
2023-01-17T02:42:46.087Z,98819.31
2023-01-17T02:45:18.262Z,98823.16
2023-01-17T02:47:45.027Z,98823.59
2023-01-17T02:50:20.238Z,98826.22
2023-01-17T02:53:12.433Z,98820.72
2023-01-17T02:56:22.607Z,98825.97
2023-01-17T02:59:10.297Z,98820.94
2023-01-17T03:01:42.713Z,98823.28
2023-01-17T03:04:18.431Z,98841.38
2023-01-17T03:06:56.861Z,98823.13
2023-01-17T03:09:25.701Z,98827.22
2023-01-17T03:11:52.806Z,98821.09
2023-01-17T03:14:19.455Z,98823.94
2023-01-17T03:16:46.733Z,98829.84
2023-01-17T03:19:14.814Z,98823.75
2023-01-17T03:21:41.796Z,98832.72
2023-01-17T03:24:08.675Z,98845.09
2023-01-17T03:26:35.349Z,98825.22
2023-01-17T03:29:02.171Z,98820.91
2023-01-17T03:31:28.892Z,98811.97
2023-01-17T03:33:55.505Z,98804.84
2023-01-17T03:36:22.280Z,98790.63
2023-01-17T03:38:48.936Z,98785.31
2023-01-17T03:41:15.554Z,98781.41
2023-01-17T03:43:42.245Z,98781.59
2023-01-17T03:46:22.760Z,98786.94
2023-01-17T03:48:50.130Z,98784.09
2023-01-17T03:51:17.128Z,98784.47
2023-01-17T03:53:46.378Z,98770.03
2023-01-17T03:56:14.177Z,98771.84
2023-01-17T03:58:40.918Z,98778.59
2023-01-17T04:01:07.870Z,98764.13
2023-01-17T04:03:34.558Z,98747.44
2023-01-17T04:06:01.480Z,98767.06
2023-01-17T04:08:28.298Z,98757.38
2023-01-17T04:10:54.994Z,98760.81
2023-01-17T04:13:21.820Z,98760.22
2023-01-17T04:15:50.610Z,98742.66
2023-01-17T04:18:19.302Z,98745.06
2023-01-17T04:20:46.007Z,98734.38
2023-01-17T04:23:13.019Z,98715.09
2023-01-17T04:25:39.786Z,98735.16
2023-01-17T04:28:06.574Z,98735.75
2023-01-17T04:30:33.618Z,98736.50
2023-01-17T04:33:00.471Z,98747.03
2023-01-17T04:35:29.804Z,98763.41
2023-01-17T04:37:56.507Z,98779.00
2023-01-17T04:40:23.977Z,98781.28
2023-01-17T04:42:51.465Z,98791.66
2023-01-17T04:45:18.307Z,98742.66
2023-01-17T04:47:44.976Z,98797.13
2023-01-17T04:50:11.890Z,98798.78
2023-01-17T04:52:38.872Z,98776.84
2023-01-17T04:55:06.116Z,98793.47
2023-01-17T04:57:32.826Z,98789.78
2023-01-17T04:59:59.479Z,98786.97
2023-01-17T05:02:26.136Z,98786.56
2023-01-17T05:04:52.755Z,98784.34
2023-01-17T05:07:19.399Z,98787.78
2023-01-17T05:09:46.064Z,98765.84
2023-01-17T05:12:12.700Z,98783.31
2023-01-17T05:14:39.376Z,98782.91
2023-01-17T05:17:06.056Z,98781.28
2023-01-17T05:19:32.723Z,98782.72
2023-01-17T05:22:04.151Z,98775.81
2023-01-17T05:24:32.379Z,98779.06
2023-01-17T05:27:03.312Z,98778.22
2023-01-17T05:29:30.595Z,98779.25
2023-01-17T05:31:57.731Z,98781.88
2023-01-17T05:34:24.791Z,98789.41
2023-01-17T05:36:51.605Z,98796.09
2023-01-17T05:39:18.553Z,98793.06
2023-01-17T05:41:45.534Z,98801.41
2023-01-17T05:44:12.276Z,98782.66
2023-01-17T05:46:39.669Z,98777.53
2023-01-17T05:49:06.379Z,98779.72
2023-01-17T05:51:33.864Z,98784.56
2023-01-17T05:54:00.490Z,98785.19
2023-01-17T05:56:27.100Z,98789.00
2023-01-17T05:58:53.733Z,98791.97
2023-01-17T06:01:20.465Z,98791.34
2023-01-17T06:03:47.201Z,98795.41
2023-01-17T06:06:14.080Z,98808.44
2023-01-17T06:08:40.847Z,98809.50
2023-01-17T06:11:07.502Z,98813.09
2023-01-17T06:13:34.153Z,98809.88
2023-01-17T06:16:04.668Z,98814.41
2023-01-17T06:18:32.016Z,98801.00
2023-01-17T06:20:58.866Z,98811.75
2023-01-17T06:23:25.658Z,98808.47
2023-01-17T06:25:52.476Z,98807.69
2023-01-17T06:28:22.165Z,98776.00
2023-01-17T06:30:49.577Z,98813.41
2023-01-17T06:33:16.636Z,98812.97
2023-01-17T06:35:51.304Z,98811.88
2023-01-17T06:38:18.026Z,98808.38
2023-01-17T06:40:44.656Z,98808.34
2023-01-17T06:43:13.445Z,98809.47
2023-01-17T06:45:40.100Z,98818.50
2023-01-17T06:48:07.391Z,98816.38
2023-01-17T06:50:34.701Z,98816.94
2023-01-17T06:53:04.350Z,98799.09
2023-01-17T06:55:33.917Z,98802.56
2023-01-17T06:58:02.894Z,98791.13
2023-01-17T07:00:31.514Z,98812.31
2023-01-17T07:02:58.369Z,98799.06
2023-01-17T07:05:25.124Z,98794.44
2023-01-17T07:07:52.055Z,98802.22
2023-01-17T07:10:18.693Z,98811.41
2023-01-17T07:12:45.683Z,98810.97
2023-01-17T07:15:12.632Z,98812.13
2023-01-17T07:17:39.549Z,98796.31
2023-01-17T07:20:07.091Z,98813.22
2023-01-17T07:22:34.016Z,98824.34
2023-01-17T07:25:00.933Z,98828.44
2023-01-17T07:27:30.531Z,98825.53
2023-01-17T07:29:57.811Z,98818.69
2023-01-17T07:32:26.771Z,98812.94
2023-01-17T07:34:54.217Z,98807.34
2023-01-17T07:37:21.019Z,98817.16
2023-01-17T07:39:47.764Z,98825.59
2023-01-17T07:42:14.450Z,98807.09
2023-01-17T07:44:44.057Z,98815.13
2023-01-17T07:47:11.362Z,98797.69
2023-01-17T07:49:38.316Z,98817.94
2023-01-17T07:52:07.425Z,98825.75
2023-01-17T07:54:34.281Z,98835.28
2023-01-17T07:57:01.486Z,98842.34
2023-01-17T07:59:28.220Z,98846.25
2023-01-17T08:01:55.272Z,98842.44
2023-01-17T08:04:25.723Z,98836.50
2023-01-17T08:06:52.376Z,98845.16
2023-01-17T08:09:19.058Z,98848.06
2023-01-17T08:11:45.674Z,98845.59
2023-01-17T08:14:12.319Z,98843.50
2023-01-17T08:16:40.166Z,98828.34
2023-01-17T08:19:06.941Z,98816.38
2023-01-17T08:21:33.524Z,98817.44
2023-01-17T08:24:00.204Z,98816.31
2023-01-17T08:26:27.512Z,98797.72
2023-01-17T08:29:00.538Z,98799.84
2023-01-17T08:31:29.774Z,98793.53
2023-01-17T08:33:57.208Z,98800.38
2023-01-17T08:36:25.902Z,98789.63
2023-01-17T08:38:53.122Z,98800.63
2023-01-17T08:41:21.001Z,98805.63
2023-01-17T08:43:48.746Z,98791.25
2023-01-17T08:46:15.522Z,98786.34
2023-01-17T08:48:42.175Z,98788.91
2023-01-17T08:51:09.135Z,98787.16
2023-01-17T08:53:35.940Z,98775.66
2023-01-17T08:56:04.066Z,98792.94
2023-01-17T08:58:32.370Z,98780.88
2023-01-17T09:01:03.606Z,98788.75
2023-01-17T09:03:32.222Z,98799.56
2023-01-17T09:06:06.856Z,98766.56
2023-01-17T09:08:34.452Z,98774.25
2023-01-17T09:11:10.118Z,98761.66
2023-01-17T09:13:37.848Z,98751.06
2023-01-17T09:16:05.594Z,98724.22
2023-01-17T09:18:33.820Z,98754.78
2023-01-17T09:21:10.072Z,98744.94
2023-01-17T09:23:36.758Z,98742.94
2023-01-17T09:26:03.426Z,98738.97
2023-01-17T09:28:30.078Z,98740.88
2023-01-17T09:30:56.968Z,98742.94
2023-01-17T09:33:24.564Z,98761.56
2023-01-17T09:35:51.199Z,98760.81
2023-01-17T09:38:17.945Z,98762.91
2023-01-17T09:40:47.521Z,98775.97
2023-01-17T09:43:26.415Z,98759.69
2023-01-17T09:45:53.195Z,98760.00
2023-01-17T09:48:36.905Z,98755.28
2023-01-17T09:51:29.663Z,98758.31
2023-01-17T09:53:56.596Z,98736.03
2023-01-17T09:56:31.289Z,98742.47
2023-01-17T09:59:18.759Z,98755.63
2023-01-17T10:02:20.830Z,98749.56
2023-01-17T10:05:24.842Z,98744.50
2023-01-17T10:08:07.336Z,98742.53
2023-01-17T10:10:47.634Z,98746.88
2023-01-17T10:13:41.080Z,98746.81
2023-01-17T10:16:32.660Z,98721.03
2023-01-17T10:19:18.041Z,98753.06
2023-01-17T10:22:10.342Z,98752.47
2023-01-17T10:24:52.033Z,98752.56
2023-01-17T10:27:27.876Z,98756.97
2023-01-17T10:29:54.661Z,98747.50
2023-01-17T10:32:25.169Z,98745.69
2023-01-17T10:34:53.436Z,98739.03
2023-01-17T10:37:26.500Z,98741.25
2023-01-17T10:39:58.096Z,98750.28
2023-01-17T10:42:49.733Z,98729.91
2023-01-17T10:45:29.251Z,98727.84
2023-01-17T10:48:05.514Z,98732.69
2023-01-17T10:50:50.603Z,98727.31
2023-01-17T10:53:45.717Z,98722.59
2023-01-17T10:56:15.831Z,98725.00
2023-01-17T10:58:42.521Z,98716.06
2023-01-17T11:01:21.034Z,98718.81
2023-01-17T11:03:51.082Z,98713.91
2023-01-17T11:06:21.440Z,98710.72
2023-01-17T11:08:56.577Z,98703.25
2023-01-17T11:11:34.369Z,98720.69
2023-01-17T11:14:05.434Z,98719.63
2023-01-17T11:16:32.591Z,98726.88
2023-01-17T11:19:15.328Z,98722.13
2023-01-17T11:21:54.364Z,98714.63
2023-01-17T11:24:30.421Z,98709.78
2023-01-17T11:26:58.087Z,98717.59
2023-01-17T11:29:27.444Z,98717.06
2023-01-17T11:31:56.354Z,98711.97
2023-01-17T11:34:26.258Z,98718.56
2023-01-17T11:37:18.421Z,98717.44
2023-01-17T11:39:48.241Z,98718.56
2023-01-17T11:42:36.062Z,98711.59
2023-01-17T11:45:25.894Z,98716.13
2023-01-17T11:48:13.633Z,98718.34
2023-01-17T11:50:46.406Z,98711.03
2023-01-17T11:53:15.900Z,98731.75
2023-01-17T11:55:57.950Z,98721.81
2023-01-17T11:58:26.676Z,98718.00
2023-01-17T12:01:35.292Z,98723.91
2023-01-17T12:04:08.484Z,98717.47
2023-01-17T12:06:58.458Z,98711.31
2023-01-17T12:09:28.400Z,98718.53
2023-01-17T12:12:28.506Z,98715.31
2023-01-17T12:15:03.131Z,98699.47
2023-01-17T12:18:09.103Z,98706.72
2023-01-17T12:20:54.524Z,98700.31
2023-01-17T12:23:31.169Z,98691.66
2023-01-17T12:26:20.803Z,98700.28
2023-01-17T12:29:02.533Z,98702.38
2023-01-17T12:32:03.419Z,98711.47
2023-01-17T12:41:08.067Z,98714.13
2023-01-17T12:43:39.674Z,98710.09
2023-01-17T12:46:21.395Z,98694.25
2023-01-17T12:48:58.831Z,98692.94
2023-01-17T12:51:29.942Z,98689.97
2023-01-17T12:54:16.097Z,98678.63
2023-01-17T12:57:20.441Z,98681.22
2023-01-17T12:59:52.616Z,98693.03
2023-01-17T13:02:37.591Z,98675.59
2023-01-17T13:05:17.303Z,98686.63
2023-01-17T13:07:52.874Z,98692.50
2023-01-17T13:10:52.425Z,98692.50
2023-01-17T13:13:24.251Z,98685.28
2023-01-17T13:15:57.929Z,98690.81
2023-01-17T13:18:27.051Z,98691.34
2023-01-17T13:21:16.818Z,98697.22
2023-01-17T13:24:06.167Z,98705.00
2023-01-17T13:26:51.264Z,98696.97
2023-01-17T13:29:30.091Z,98709.84
2023-01-17T13:32:18.589Z,98698.84
2023-01-17T13:35:12.606Z,98695.03
2023-01-17T13:37:57.500Z,98691.06
2023-01-17T13:40:42.407Z,98695.09
2023-01-17T13:43:29.191Z,98691.03
2023-01-17T13:46:03.341Z,98691.84
2023-01-17T13:48:38.220Z,98694.97
2023-01-17T13:51:06.454Z,98687.47
2023-01-17T13:53:36.945Z,98690.72
2023-01-17T13:56:36.162Z,98685.84
2023-01-17T13:59:05.054Z,98670.69
2023-01-17T14:01:38.622Z,98686.91
2023-01-17T14:04:14.506Z,98679.59
2023-01-17T14:06:45.709Z,98682.97
2023-01-17T14:09:27.297Z,98679.28
2023-01-17T14:11:57.122Z,98674.41
2023-01-17T14:14:42.889Z,98679.22
2023-01-17T14:17:28.285Z,98681.72
2023-01-17T14:20:16.928Z,98687.06
2023-01-17T14:22:56.685Z,98681.41
2023-01-17T14:25:29.673Z,98683.56
2023-01-17T14:28:07.961Z,98690.59
2023-01-17T14:30:37.661Z,98682.22
2023-01-17T14:33:29.398Z,98679.59
2023-01-17T14:36:03.364Z,98688.06
2023-01-17T14:38:32.177Z,98692.75
2023-01-17T14:41:09.452Z,98697.03
2023-01-17T14:43:40.955Z,98700.66
2023-01-17T14:46:33.902Z,98701.16
2023-01-17T14:49:04.021Z,98707.84
2023-01-17T14:51:35.123Z,98699.94
2023-01-17T14:54:05.373Z,98706.84
2023-01-17T14:56:33.611Z,98702.84
2023-01-17T14:59:17.331Z,98705.41
2023-01-17T15:02:06.130Z,98704.34
2023-01-17T15:04:39.315Z,98704.13
2023-01-17T15:07:07.609Z,98703.00
2023-01-17T15:09:37.893Z,98704.63
2023-01-17T15:12:08.544Z,98714.00
2023-01-17T15:14:39.852Z,98714.47
2023-01-17T15:17:20.141Z,98712.22
2023-01-17T15:19:55.703Z,98707.00
2023-01-17T15:22:25.918Z,98698.69
2023-01-17T15:24:53.990Z,98693.78
2023-01-17T15:27:21.294Z,98704.34
2023-01-17T15:29:48.502Z,98695.19
2023-01-17T15:32:22.573Z,98706.19
2023-01-17T15:34:51.232Z,98705.41
2023-01-17T15:37:37.658Z,98703.47
2023-01-17T15:40:20.965Z,98712.97
2023-01-17T15:42:51.877Z,98714.31
2023-01-17T15:45:22.286Z,98712.47
2023-01-17T15:47:49.015Z,98702.41
2023-01-17T15:50:23.769Z,98698.78
2023-01-17T15:52:52.667Z,98694.91
2023-01-17T15:55:23.604Z,98692.66
2023-01-17T15:57:50.430Z,98693.69
2023-01-17T16:00:20.781Z,98685.03
2023-01-17T16:02:55.305Z,98686.59
2023-01-17T16:05:22.586Z,98666.50
2023-01-17T16:07:51.187Z,98682.84
2023-01-17T16:10:20.401Z,98680.31
2023-01-17T16:12:48.619Z,98674.38
2023-01-17T16:15:18.289Z,98691.38
2023-01-17T16:17:48.670Z,98699.59
2023-01-17T16:20:28.430Z,98684.03
2023-01-17T16:22:55.284Z,98682.94
2023-01-17T16:25:23.741Z,98689.34
2023-01-17T16:27:52.399Z,98659.06
2023-01-17T16:30:21.742Z,98698.59
2023-01-17T16:32:49.459Z,98690.50
2023-01-17T16:35:19.133Z,98695.84
2023-01-17T16:37:51.844Z,98703.59
2023-01-17T16:40:21.113Z,98688.84
2023-01-17T16:42:48.143Z,98714.78
2023-01-17T16:45:15.747Z,98708.88
2023-01-17T16:47:43.900Z,98702.50
2023-01-17T16:50:16.697Z,98699.84
2023-01-17T16:52:43.415Z,98722.41
2023-01-17T16:55:13.271Z,98724.63
2023-01-17T16:57:40.224Z,98721.63
2023-01-17T17:00:08.390Z,98728.53
2023-01-17T17:02:35.199Z,98726.88
2023-01-17T17:05:02.044Z,98730.47
2023-01-17T17:07:28.754Z,98742.28
2023-01-17T17:09:55.390Z,98734.88
2023-01-17T17:12:24.113Z,98727.91
2023-01-17T17:14:50.743Z,98731.09
2023-01-17T17:17:17.433Z,98727.84
2023-01-17T17:19:44.082Z,98733.41
2023-01-17T17:22:10.761Z,98735.75
2023-01-17T17:24:38.115Z,98720.97
2023-01-17T17:27:04.793Z,98726.59
2023-01-17T17:29:31.530Z,98735.13
2023-01-17T17:31:58.141Z,98734.63
2023-01-17T17:34:27.724Z,98729.34
2023-01-17T17:36:54.334Z,98736.84
2023-01-17T17:39:21.049Z,98744.38
2023-01-17T17:41:47.839Z,98732.13
2023-01-17T17:44:14.557Z,98740.47
2023-01-17T17:46:42.247Z,98731.13
2023-01-17T17:49:09.609Z,98743.47
2023-01-17T17:51:38.917Z,98734.72
2023-01-17T17:54:08.399Z,98725.44
2023-01-17T17:56:35.846Z,98725.63
2023-01-17T17:59:04.254Z,98726.66
2023-01-17T18:01:31.493Z,98722.00
2023-01-17T18:04:02.561Z,98723.09
2023-01-17T18:06:31.117Z,98721.53
2023-01-17T18:08:57.746Z,98717.38
2023-01-17T18:11:26.793Z,98729.44
2023-01-17T18:13:55.377Z,98713.94
2023-01-17T18:16:28.241Z,98725.16
2023-01-17T18:18:57.500Z,98712.19
2023-01-17T18:21:36.140Z,98699.09
2023-01-17T18:24:15.088Z,98718.25
2023-01-17T18:26:57.052Z,98721.13
2023-01-17T18:29:25.587Z,98725.75
2023-01-17T18:31:53.513Z,98719.91
2023-01-17T18:34:24.371Z,98721.91
2023-01-17T18:36:52.093Z,98721.53
2023-01-17T18:39:25.917Z,98717.47
2023-01-17T18:41:53.178Z,98718.09
2023-01-17T18:44:22.190Z,98721.69
2023-01-17T18:46:50.556Z,98713.38
2023-01-17T18:49:21.007Z,98703.25
2023-01-17T18:51:52.941Z,98711.53
2023-01-17T18:54:20.534Z,98688.97
2023-01-17T18:56:47.499Z,98691.22
2023-01-17T18:59:18.438Z,98690.47
2023-01-17T19:01:46.165Z,98692.44
2023-01-17T19:04:14.582Z,98689.72
2023-01-17T19:06:45.945Z,98688.66
2023-01-17T19:09:14.849Z,98684.53
2023-01-17T19:11:44.354Z,98693.13
2023-01-17T19:14:11.847Z,98689.38
2023-01-17T19:16:40.689Z,98634.38
2023-01-17T19:19:14.312Z,98683.81
2023-01-17T19:21:41.068Z,98689.16
2023-01-17T19:24:08.614Z,98692.13
2023-01-17T19:26:35.485Z,98693.69
2023-01-17T19:29:07.004Z,98689.63
2023-01-17T19:31:39.754Z,98695.38
2023-01-17T19:34:06.450Z,98659.66
2023-01-17T19:36:35.960Z,98665.75
2023-01-17T19:39:06.156Z,98664.69
2023-01-17T19:41:41.489Z,98650.50
2023-01-17T19:44:10.023Z,98642.31
2023-01-17T19:46:37.007Z,98659.47
2023-01-17T19:49:05.991Z,98657.13
2023-01-17T19:51:33.284Z,98654.34
2023-01-17T19:54:01.583Z,98649.28
2023-01-17T19:56:29.893Z,98657.69
2023-01-17T19:59:01.824Z,98663.19
2023-01-17T20:01:31.809Z,98659.69
2023-01-17T20:03:59.699Z,98641.09
2023-01-17T20:06:30.802Z,98647.47
2023-01-17T20:08:57.829Z,98650.13
2023-01-17T20:11:26.600Z,98655.22
2023-01-17T20:13:55.230Z,98659.38
2023-01-17T20:16:23.592Z,98654.19
2023-01-17T20:18:50.310Z,98654.81
2023-01-17T20:21:22.991Z,98672.00
2023-01-17T20:23:52.098Z,98670.53
2023-01-17T20:26:21.869Z,98666.22
2023-01-17T20:28:51.946Z,98669.28
2023-01-17T20:31:21.876Z,98677.88
2023-01-17T20:33:50.764Z,98668.16
2023-01-17T20:36:19.234Z,98665.81
2023-01-17T20:38:46.462Z,98665.28
2023-01-17T20:41:29.492Z,98672.53
2023-01-17T20:43:58.016Z,98661.84
2023-01-17T20:46:35.595Z,98675.50
2023-01-17T20:49:05.475Z,98669.50
2023-01-17T20:51:34.497Z,98673.88
2023-01-17T20:54:03.587Z,98655.38
2023-01-17T20:56:34.564Z,98662.38
2023-01-17T20:59:06.297Z,98680.75
2023-01-17T21:01:34.447Z,98672.25
2023-01-17T21:04:01.271Z,98671.00
2023-01-17T21:06:27.880Z,98658.59
2023-01-17T21:08:54.691Z,98673.38
2023-01-17T21:11:24.285Z,98653.38
2023-01-17T21:13:51.620Z,98660.25
2023-01-17T21:16:21.295Z,98667.53
2023-01-17T21:18:49.447Z,98672.63
2023-01-17T21:21:19.305Z,98672.31
2023-01-17T21:23:46.041Z,98676.03
2023-01-17T21:26:15.208Z,98671.09
2023-01-17T21:28:44.480Z,98665.84
2023-01-17T21:31:24.775Z,98659.69
2023-01-17T21:33:55.587Z,98663.84
2023-01-17T21:36:24.776Z,98646.78
2023-01-17T21:38:54.687Z,98631.81
2023-01-17T21:41:27.313Z,98633.13
2023-01-17T21:43:57.894Z,98638.94
2023-01-17T21:46:25.526Z,98643.03
2023-01-17T21:48:52.479Z,98632.59
2023-01-17T21:51:19.888Z,98626.69
2023-01-17T21:53:46.689Z,98627.88
2023-01-17T21:56:32.914Z,98618.25
2023-01-17T21:58:59.795Z,98617.94
2023-01-17T22:01:30.091Z,98624.09
2023-01-17T22:04:02.840Z,98631.91
2023-01-17T22:06:31.575Z,98629.00
2023-01-17T22:08:59.336Z,98614.41
2023-01-17T22:11:27.833Z,98635.03
2023-01-17T22:14:25.662Z,98638.88
2023-01-17T22:17:06.606Z,98631.31
2023-01-17T22:19:33.962Z,98642.94
2023-01-17T22:22:01.086Z,98632.88
2023-01-17T22:24:27.765Z,98632.13
2023-01-17T22:26:54.379Z,98634.88
2023-01-17T22:29:21.747Z,98616.59
2023-01-17T22:31:49.085Z,98615.47
2023-01-17T22:34:15.832Z,98623.38
2023-01-17T22:36:42.563Z,98619.78
2023-01-17T22:39:10.361Z,98620.78
2023-01-17T22:41:38.489Z,98621.13
2023-01-17T22:44:08.668Z,98614.38
2023-01-17T22:46:40.565Z,98609.06
2023-01-17T22:49:08.563Z,98613.88
2023-01-17T22:51:35.841Z,98611.22
2023-01-17T22:54:02.666Z,98616.91
2023-01-17T22:56:32.084Z,98618.97
2023-01-17T22:59:00.941Z,98620.59
2023-01-17T23:01:32.876Z,98615.56
2023-01-17T23:04:02.197Z,98617.06
2023-01-17T23:06:34.137Z,98611.81
2023-01-17T23:09:03.869Z,98618.03
2023-01-17T23:11:39.137Z,98623.91
2023-01-17T23:14:06.025Z,98619.78
2023-01-17T23:16:51.217Z,98619.63
2023-01-17T23:19:23.983Z,98615.44
2023-01-17T23:22:11.965Z,98604.50
2023-01-17T23:24:43.375Z,98602.03
2023-01-17T23:27:58.847Z,98601.09
2023-01-17T23:30:36.630Z,98612.75
2023-01-17T23:33:06.486Z,98592.47
2023-01-17T23:35:41.289Z,98591.75
2023-01-17T23:38:33.807Z,98584.56
2023-01-17T23:41:27.402Z,98603.00
2023-01-17T23:43:56.068Z,98606.19
2023-01-17T23:46:24.154Z,98605.03
2023-01-17T23:48:51.272Z,98605.84
2023-01-17T23:51:18.660Z,98596.41
2023-01-17T23:53:45.330Z,98609.38
2023-01-17T23:56:21.761Z,98613.78
2023-01-17T23:58:49.030Z,98606.72
